Time;durP1;ratioP1;P1;durP2;ratioP2;P2;SDS_P1;SDS_P2;PMS_P1;PMS_P2;Temp;Humidity;BMP_temperature;BMP_pressure;BME280_temperature;BME280_humidity;BME280_pressure;Samples;Min_cycle;Max_cycle;Signal;HPM_P1;HPM_P2
2022/07/16 00:03:41;;;;;;;3.25;2.33;;;;;;;;;;5004895;28;20053;-44
2022/07/16 00:06:07;;;;;;;6.18;2.00;;;;;;;;;;5005140;28;20062;-43
2022/07/16 00:08:32;;;;;;;4.80;2.00;;;;;;;;;;5009709;28;20038;-45
2022/07/16 00:10:58;;;;;;;4.78;2.33;;;;;;;;;;5009068;28;20026;-46
2022/07/16 00:13:24;;;;;;;11.90;2.15;;;;;;;;;;5005732;28;20069;-42
2022/07/16 00:15:49;;;;;;;6.18;2.30;;;;;;;;;;5006454;28;20034;-45
2022/07/16 00:21:00;;;;;;;4.80;2.42;;;;;;;;;;5010198;28;20034;-42
2022/07/16 00:23:25;;;;;;;3.85;2.30;;;;;;;;;;5006366;28;20045;-42
2022/07/16 00:25:51;;;;;;;4.35;2.47;;;;;;;;;;5009845;28;20029;-45
2022/07/16 00:28:17;;;;;;;4.95;2.33;;;;;;;;;;5005272;28;20068;-47
2022/07/16 00:30:42;;;;;;;9.02;2.58;;;;;;;;;;5006987;28;20108;-44
2022/07/16 00:33:08;;;;;;;2.22;2.08;;;;;;;;;;5005677;28;20053;-42
2022/07/16 00:35:33;;;;;;;2.95;2.35;;;;;;;;;;5008098;28;20029;-41
2022/07/16 00:37:59;;;;;;;2.80;2.10;;;;;;;;;;5007866;28;20037;-44
2022/07/16 00:40:25;;;;;;;3.85;2.13;;;;;;;;;;5009081;28;20030;-46
2022/07/16 00:42:51;;;;;;;2.33;2.05;;;;;;;;;;5007326;28;20113;-47
2022/07/16 00:45:16;;;;;;;6.70;2.25;;;;;;;;;;5007347;28;20026;-43
2022/07/16 00:47:42;;;;;;;6.30;2.22;;;;;;;;;;5006455;28;20096;-42
2022/07/16 00:50:08;;;;;;;8.93;2.50;;;;;;;;;;5008225;28;20100;-45
2022/07/16 00:52:35;;;;;;;2.90;2.30;;;;;;;;;;5004767;28;20679;-42
2022/07/16 00:55:02;;;;;;;2.88;2.03;;;;;;;;;;5006997;28;20414;-43
2022/07/16 00:57:29;;;;;;;4.45;2.47;;;;;;;;;;5009194;28;20046;-42
2022/07/16 00:59:55;;;;;;;12.75;2.22;;;;;;;;;;5007438;28;20033;-45
2022/07/16 01:02:20;;;;;;;9.48;2.40;;;;;;;;;;5009115;28;20026;-42
2022/07/16 01:04:47;;;;;;;8.45;2.33;;;;;;;;;;5005981;28;20029;-45
2022/07/16 01:07:13;;;;;;;7.00;2.45;;;;;;;;;;5005618;28;20041;-46
2022/07/16 01:09:39;;;;;;;2.95;2.33;;;;;;;;;;5005048;28;20030;-43
2022/07/16 01:12:05;;;;;;;5.53;2.38;;;;;;;;;;5006815;28;20026;-43
2022/07/16 01:14:31;;;;;;;3.70;2.08;;;;;;;;;;5007067;28;20040;-44
2022/07/16 01:16:57;;;;;;;4.82;1.92;;;;;;;;;;5005070;28;20073;-43
2022/07/16 01:19:23;;;;;;;2.22;2.00;;;;;;;;;;5002574;28;20030;-45
2022/07/16 01:21:49;;;;;;;8.35;2.42;;;;;;;;;;5005000;28;20072;-44
2022/07/16 01:24:14;;;;;;;4.00;2.20;;;;;;;;;;5007701;28;20036;-44
2022/07/16 01:26:40;;;;;;;3.65;2.72;;;;;;;;;;5007068;28;20053;-43
2022/07/16 01:29:05;;;;;;;5.07;2.33;;;;;;;;;;5005638;28;20630;-48
2022/07/16 01:31:31;;;;;;;5.22;2.33;;;;;;;;;;5007794;28;20041;-44
2022/07/16 01:36:41;;;;;;;2.40;2.20;;;;;;;;;;5004924;28;20029;-42
2022/07/16 01:39:07;;;;;;;4.30;2.13;;;;;;;;;;5003688;28;20029;-45
2022/07/16 01:41:33;;;;;;;3.58;2.38;;;;;;;;;;5006584;28;20103;-45
2022/07/16 01:43:59;;;;;;;6.15;2.20;;;;;;;;;;5002566;28;20022;-42
2022/07/16 01:46:24;;;;;;;2.80;2.28;;;;;;;;;;5008116;28;20026;-42
2022/07/16 01:48:50;;;;;;;6.13;2.08;;;;;;;;;;5004028;28;20034;-44
2022/07/16 01:51:16;;;;;;;4.03;1.98;;;;;;;;;;5006887;28;20499;-45
2022/07/16 01:53:41;;;;;;;2.45;2.20;;;;;;;;;;5005412;28;20097;-43
2022/07/16 01:56:07;;;;;;;8.18;2.17;;;;;;;;;;5003507;28;20050;-45
2022/07/16 01:58:33;;;;;;;12.13;3.03;;;;;;;;;;5007574;28;20372;-43
2022/07/16 02:00:59;;;;;;;5.60;2.70;;;;;;;;;;5005894;28;20093;-49
2022/07/16 02:03:24;;;;;;;6.78;3.28;;;;;;;;;;5002151;28;20022;-47
2022/07/16 02:05:50;;;;;;;14.13;2.85;;;;;;;;;;5004607;28;20065;-45
2022/07/16 02:08:16;;;;;;;8.95;2.78;;;;;;;;;;5006436;28;20402;-47
2022/07/16 02:10:42;;;;;;;13.18;3.22;;;;;;;;;;5007368;28;20026;-42
2022/07/16 02:13:08;;;;;;;7.47;3.17;;;;;;;;;;5008016;28;20049;-43
2022/07/16 02:15:34;;;;;;;6.32;2.33;;;;;;;;;;5005979;28;20030;-44
2022/07/16 02:18:00;;;;;;;3.50;2.50;;;;;;;;;;5001865;28;20030;-44
2022/07/16 02:20:26;;;;;;;5.63;2.22;;;;;;;;;;5007616;28;20026;-44
2022/07/16 02:22:54;;;;;;;5.55;2.30;;;;;;;;;;5007200;28;20033;-43
2022/07/16 02:25:20;;;;;;;4.13;2.28;;;;;;;;;;5004706;28;20817;-43
2022/07/16 02:30:30;;;;;;;10.00;2.78;;;;;;;;;;5005078;28;20030;-42
2022/07/16 02:32:55;;;;;;;4.90;2.42;;;;;;;;;;5006877;28;20939;-42
2022/07/16 02:35:21;;;;;;;4.15;2.33;;;;;;;;;;5001862;28;20368;-44
2022/07/16 02:37:47;;;;;;;2.25;2.05;;;;;;;;;;5006882;28;20551;-43
2022/07/16 02:40:13;;;;;;;8.23;2.58;;;;;;;;;;5005228;28;20041;-42
2022/07/16 02:42:40;;;;;;;5.35;2.28;;;;;;;;;;5006312;28;20155;-45
2022/07/16 02:45:07;;;;;;;3.38;2.40;;;;;;;;;;5004422;28;20125;-44
2022/07/16 02:47:34;;;;;;;2.08;1.98;;;;;;;;;;5006198;28;20498;-47
2022/07/16 02:50:00;;;;;;;2.92;2.30;;;;;;;;;;5004124;28;20099;-42
2022/07/16 02:52:26;;;;;;;2.65;2.13;;;;;;;;;;5004975;28;20030;-44
2022/07/16 02:54:52;;;;;;;8.02;2.53;;;;;;;;;;5004998;28;20509;-45
2022/07/16 02:57:18;;;;;;;3.63;2.42;;;;;;;;;;5004309;28;20157;-42
2022/07/16 02:59:43;;;;;;;5.03;2.28;;;;;;;;;;5008743;28;20375;-44
2022/07/16 03:02:09;;;;;;;7.40;2.40;;;;;;;;;;5001125;28;20540;-42
2022/07/16 03:04:35;;;;;;;3.67;2.47;;;;;;;;;;5001419;28;20463;-43
2022/07/16 03:07:00;;;;;;;4.03;2.33;;;;;;;;;;5002105;28;20026;-41
2022/07/16 03:09:26;;;;;;;6.30;2.83;;;;;;;;;;5007648;28;20033;-42
2022/07/16 03:11:52;;;;;;;7.72;2.42;;;;;;;;;;5004551;28;20030;-42
2022/07/16 03:14:17;;;;;;;2.28;2.17;;;;;;;;;;5004632;28;20033;-41
2022/07/16 03:16:43;;;;;;;11.05;2.25;;;;;;;;;;5022988;28;20034;-42
2022/07/16 03:19:09;;;;;;;6.32;3.05;;;;;;;;;;5004212;28;20486;-44
2022/07/16 03:21:35;;;;;;;5.45;2.30;;;;;;;;;;5005128;28;20113;-45
2022/07/16 03:24:01;;;;;;;2.60;2.40;;;;;;;;;;5003194;28;20053;-41
2022/07/16 03:26:26;;;;;;;4.10;2.33;;;;;;;;;;5002859;28;20033;-47
2022/07/16 03:28:52;;;;;;;2.67;2.33;;;;;;;;;;5007864;28;20026;-42
2022/07/16 03:31:18;;;;;;;5.28;2.13;;;;;;;;;;5009302;28;20498;-44
2022/07/16 03:33:44;;;;;;;4.82;2.17;;;;;;;;;;5010532;28;20046;-42
2022/07/16 03:36:10;;;;;;;11.13;2.33;;;;;;;;;;5005826;28;20029;-45
2022/07/16 03:41:20;;;;;;;4.78;2.58;;;;;;;;;;5006686;28;20033;-44
2022/07/16 03:43:46;;;;;;;6.20;2.55;;;;;;;;;;5008271;28;20037;-44
2022/07/16 03:46:13;;;;;;;4.85;2.50;;;;;;;;;;5004303;28;20026;-44
2022/07/16 03:48:42;;;;;;;3.72;2.20;;;;;;;;;;5007572;28;20030;-41
2022/07/16 03:51:08;;;;;;;4.43;2.47;;;;;;;;;;5009591;28;20029;-44
2022/07/16 03:53:35;;;;;;;4.60;2.38;;;;;;;;;;5008797;28;20145;-49
2022/07/16 03:56:02;;;;;;;3.45;2.80;;;;;;;;;;5007522;28;20038;-43
2022/07/16 03:58:28;;;;;;;8.88;3.20;;;;;;;;;;5009489;28;20034;-42
2022/07/16 04:00:54;;;;;;;6.40;2.30;;;;;;;;;;5011464;28;20069;-41
2022/07/16 04:03:20;;;;;;;6.07;2.63;;;;;;;;;;5005681;28;20172;-42
2022/07/16 04:05:46;;;;;;;3.40;2.63;;;;;;;;;;5009572;28;20084;-47
2022/07/16 04:08:12;;;;;;;3.03;2.30;;;;;;;;;;5009563;28;20038;-47
2022/07/16 04:10:38;;;;;;;8.10;3.00;;;;;;;;;;5009904;28;20029;-47
2022/07/16 04:13:03;;;;;;;3.75;2.47;;;;;;;;;;5004935;28;20030;-45
2022/07/16 04:15:31;;;;;;;6.55;2.70;;;;;;;;;;5003833;28;20483;-44
2022/07/16 04:18:17;;;;;;;6.55;2.65;;;;;;;;;;5008528;28;20034;-44
2022/07/16 04:21:04;;;;;;;5.82;2.60;;;;;;;;;;5007404;28;20042;-43
2022/07/16 04:23:50;;;;;;;2.83;2.50;;;;;;;;;;5009874;28;20034;-46
2022/07/16 04:26:35;;;;;;;4.93;2.35;;;;;;;;;;5006255;28;20233;-42
2022/07/16 04:29:20;;;;;;;5.82;2.70;;;;;;;;;;5005972;28;20399;-43
2022/07/16 04:32:06;;;;;;;2.35;2.15;;;;;;;;;;5010151;28;20045;-45
2022/07/16 04:34:40;;;;;;;6.55;2.45;;;;;;;;;;5007756;28;20040;-45
2022/07/16 04:37:07;;;;;;;8.35;2.65;;;;;;;;;;5005663;28;20467;-44
2022/07/16 04:39:33;;;;;;;7.22;2.25;;;;;;;;;;5007668;28;20044;-41
2022/07/16 04:41:58;;;;;;;6.25;2.90;;;;;;;;;;5008584;28;20029;-47
2022/07/16 04:44:24;;;;;;;6.07;2.45;;;;;;;;;;5004863;28;20105;-43
2022/07/16 04:46:50;;;;;;;5.95;2.92;;;;;;;;;;5007141;28;20069;-42
2022/07/16 04:49:16;;;;;;;9.20;2.75;;;;;;;;;;5007134;28;20120;-42
2022/07/16 04:51:41;;;;;;;4.63;2.60;;;;;;;;;;5012783;28;20484;-43
2022/07/16 04:54:07;;;;;;;2.47;2.25;;;;;;;;;;5008889;28;20088;-42
2022/07/16 04:56:32;;;;;;;5.13;2.85;;;;;;;;;;5005459;28;20045;-42
2022/07/16 04:58:58;;;;;;;8.77;2.63;;;;;;;;;;5009351;28;20069;-44
2022/07/16 05:01:24;;;;;;;4.13;2.78;;;;;;;;;;5006901;28;20030;-42
2022/07/16 05:03:49;;;;;;;6.47;2.47;;;;;;;;;;5006711;28;20052;-41
2022/07/16 05:06:15;;;;;;;6.53;2.53;;;;;;;;;;5002646;28;20029;-44
2022/07/16 05:08:41;;;;;;;6.80;2.85;;;;;;;;;;5008806;28;20517;-43
2022/07/16 05:11:06;;;;;;;7.47;3.08;;;;;;;;;;5008005;28;20026;-44
2022/07/16 05:13:32;;;;;;;5.15;2.75;;;;;;;;;;5003648;28;20421;-44
2022/07/16 05:15:58;;;;;;;5.50;2.85;;;;;;;;;;5006741;28;20038;-43
2022/07/16 05:18:23;;;;;;;9.50;2.78;;;;;;;;;;5008370;28;20038;-47
2022/07/16 05:20:49;;;;;;;4.07;2.47;;;;;;;;;;5004898;28;20451;-43
2022/07/16 05:23:15;;;;;;;3.38;2.55;;;;;;;;;;5007474;28;20453;-42
2022/07/16 05:25:40;;;;;;;8.52;2.80;;;;;;;;;;5005898;28;20104;-43
2022/07/16 05:28:06;;;;;;;9.68;3.10;;;;;;;;;;5007002;28;20073;-44
2022/07/16 05:30:32;;;;;;;7.10;3.33;;;;;;;;;;5005550;28;20080;-43
2022/07/16 05:32:58;;;;;;;3.22;2.92;;;;;;;;;;5005839;28;20038;-42
2022/07/16 05:35:23;;;;;;;3.33;3.05;;;;;;;;;;5005807;28;20037;-42
2022/07/16 05:37:49;;;;;;;8.90;3.00;;;;;;;;;;5006868;28;20042;-43
2022/07/16 05:40:14;;;;;;;8.45;3.35;;;;;;;;;;5007459;28;20025;-42
2022/07/16 05:42:40;;;;;;;8.30;3.53;;;;;;;;;;5006811;28;20108;-49
2022/07/16 05:45:07;;;;;;;11.25;3.20;;;;;;;;;;5005490;28;20087;-42
2022/07/16 05:47:33;;;;;;;5.07;3.47;;;;;;;;;;5004278;28;20124;-43
2022/07/16 05:50:04;;;;;;;5.43;3.53;;;;;;;;;;5004950;28;20470;-41
2022/07/16 05:52:30;;;;;;;8.73;3.35;;;;;;;;;;5006015;28;20030;-44
2022/07/16 05:54:56;;;;;;;8.15;4.38;;;;;;;;;;5005444;28;20069;-42
2022/07/16 05:57:21;;;;;;;3.58;3.28;;;;;;;;;;5005422;28;20069;-41
2022/07/16 05:59:47;;;;;;;6.72;3.13;;;;;;;;;;5007659;28;20076;-42
2022/07/16 06:02:13;;;;;;;5.07;3.10;;;;;;;;;;5002190;28;20030;-42
2022/07/16 06:04:38;;;;;;;5.47;3.35;;;;;;;;;;5006257;28;20046;-42
2022/07/16 06:07:04;;;;;;;4.78;2.78;;;;;;;;;;5006156;28;20049;-44
2022/07/16 06:09:29;;;;;;;5.72;3.17;;;;;;;;;;5004883;28;20030;-41
2022/07/16 06:11:55;;;;;;;9.40;3.20;;;;;;;;;;5006769;28;20026;-40
2022/07/16 06:14:21;;;;;;;6.70;3.15;;;;;;;;;;5006120;28;20101;-42
2022/07/16 06:16:47;;;;;;;5.13;3.30;;;;;;;;;;5000232;28;20038;-42
2022/07/16 06:19:13;;;;;;;8.02;3.25;;;;;;;;;;5006616;28;20030;-42
2022/07/16 06:21:39;;;;;;;5.43;2.92;;;;;;;;;;5006995;28;20081;-42
2022/07/16 06:24:05;;;;;;;17.73;3.22;;;;;;;;;;5008095;28;20026;-41
2022/07/16 06:26:31;;;;;;;5.45;3.08;;;;;;;;;;5004263;28;20037;-41
2022/07/16 06:28:57;;;;;;;4.40;2.70;;;;;;;;;;5003755;28;20117;-42
2022/07/16 06:31:23;;;;;;;5.55;3.17;;;;;;;;;;5007544;28;20108;-42
2022/07/16 06:33:48;;;;;;;7.93;3.08;;;;;;;;;;5004032;28;20026;-41
2022/07/16 06:36:14;;;;;;;4.55;3.33;;;;;;;;;;5007138;28;20022;-41
2022/07/16 06:38:39;;;;;;;3.58;3.22;;;;;;;;;;5003954;28;20045;-42
2022/07/16 06:41:05;;;;;;;4.47;3.13;;;;;;;;;;5005942;28;20033;-42
2022/07/16 06:43:31;;;;;;;3.95;2.80;;;;;;;;;;5005993;28;20116;-43
2022/07/16 06:45:56;;;;;;;3.28;2.92;;;;;;;;;;5004955;28;20029;-42
2022/07/16 06:48:22;;;;;;;7.45;3.20;;;;;;;;;;5003810;28;20092;-42
2022/07/16 06:50:48;;;;;;;3.42;3.13;;;;;;;;;;5005014;28;20163;-42
2022/07/16 06:53:14;;;;;;;10.20;3.13;;;;;;;;;;5005875;28;20026;-41
2022/07/16 06:55:39;;;;;;;4.30;2.75;;;;;;;;;;5006651;28;20045;-45
2022/07/16 06:58:05;;;;;;;8.20;3.20;;;;;;;;;;4993258;28;20038;-42
2022/07/16 07:00:31;;;;;;;9.68;3.10;;;;;;;;;;5002940;28;20033;-41
2022/07/16 07:02:56;;;;;;;5.65;3.35;;;;;;;;;;5001817;28;20105;-45
2022/07/16 07:05:22;;;;;;;3.72;3.30;;;;;;;;;;5001349;28;20049;-43
2022/07/16 07:07:48;;;;;;;5.85;3.00;;;;;;;;;;4999078;28;20495;-42
2022/07/16 07:10:14;;;;;;;3.67;3.33;;;;;;;;;;4996340;28;20040;-42
2022/07/16 07:12:39;;;;;;;4.20;3.47;;;;;;;;;;4998606;28;20069;-42
2022/07/16 07:15:05;;;;;;;5.40;3.15;;;;;;;;;;5001033;28;20449;-44
2022/07/16 07:17:31;;;;;;;3.97;3.38;;;;;;;;;;4993787;28;20045;-42
2022/07/16 07:19:57;;;;;;;12.52;3.88;;;;;;;;;;4992694;28;20033;-42
2022/07/16 07:22:23;;;;;;;6.65;3.03;;;;;;;;;;5003073;28;20168;-41
2022/07/16 07:24:50;;;;;;;6.15;3.60;;;;;;;;;;4997308;28;20517;-42
2022/07/16 07:27:18;;;;;;;6.05;3.35;;;;;;;;;;5001259;28;20060;-41
2022/07/16 07:29:44;;;;;;;8.93;4.13;;;;;;;;;;4998708;28;20498;-42
2022/07/16 07:32:09;;;;;;;6.63;3.67;;;;;;;;;;4996340;28;20081;-43
2022/07/16 07:34:35;;;;;;;4.10;3.70;;;;;;;;;;4996331;28;20432;-44
2022/07/16 07:37:01;;;;;;;6.40;3.33;;;;;;;;;;4995978;28;20479;-42
2022/07/16 07:39:27;;;;;;;4.20;3.80;;;;;;;;;;4997472;28;20153;-43
2022/07/16 07:41:52;;;;;;;5.10;3.70;;;;;;;;;;4992849;28;20056;-42
2022/07/16 07:44:18;;;;;;;4.28;3.80;;;;;;;;;;4995025;28;20136;-42
2022/07/16 07:46:44;;;;;;;6.30;4.07;;;;;;;;;;4994521;28;20062;-42
2022/07/16 07:49:11;;;;;;;6.70;3.97;;;;;;;;;;5001978;28;20014;-42
2022/07/16 07:51:37;;;;;;;6.35;3.83;;;;;;;;;;5006521;28;20505;-41
2022/07/16 07:54:03;;;;;;;5.22;3.58;;;;;;;;;;4997787;28;20021;-42
2022/07/16 07:56:28;;;;;;;6.05;3.78;;;;;;;;;;5005714;28;20057;-42
2022/07/16 07:58:54;;;;;;;6.35;3.85;;;;;;;;;;5003134;28;20029;-42
2022/07/16 08:01:20;;;;;;;10.43;4.05;;;;;;;;;;5003394;28;20156;-42
2022/07/16 08:03:45;;;;;;;5.47;3.63;;;;;;;;;;5004372;28;20466;-42
2022/07/16 08:06:11;;;;;;;5.28;3.60;;;;;;;;;;5004320;28;20426;-43
2022/07/16 08:08:37;;;;;;;4.65;3.55;;;;;;;;;;4998771;28;20026;-42
2022/07/16 08:11:02;;;;;;;5.78;3.40;;;;;;;;;;5001261;28;20030;-42
2022/07/16 08:13:28;;;;;;;4.15;3.70;;;;;;;;;;5004216;28;20184;-42
2022/07/16 08:15:54;;;;;;;6.00;3.97;;;;;;;;;;5005091;28;20070;-44
2022/07/16 08:18:19;;;;;;;11.77;3.85;;;;;;;;;;5010339;28;20073;-43
2022/07/16 08:20:45;;;;;;;5.80;3.90;;;;;;;;;;5004748;28;20034;-42
2022/07/16 08:23:11;;;;;;;7.68;4.25;;;;;;;;;;5007660;28;20607;-41
2022/07/16 08:25:45;;;;;;;5.70;3.92;;;;;;;;;;5000562;28;20034;-42
2022/07/16 08:28:12;;;;;;;7.30;3.90;;;;;;;;;;5003122;28;20060;-43
2022/07/16 08:30:38;;;;;;;6.38;3.70;;;;;;;;;;5009583;28;20481;-42
2022/07/16 08:33:04;;;;;;;10.77;3.55;;;;;;;;;;5002686;28;20484;-45
2022/07/16 08:35:29;;;;;;;10.30;3.17;;;;;;;;;;5009292;28;20030;-42
2022/07/16 08:37:55;;;;;;;9.73;3.58;;;;;;;;;;5009216;28;20042;-42
2022/07/16 08:40:23;;;;;;;4.95;3.20;;;;;;;;;;5005515;28;20033;-42
2022/07/16 08:42:49;;;;;;;6.50;3.53;;;;;;;;;;5003573;28;20026;-41
2022/07/16 08:45:18;;;;;;;6.18;3.38;;;;;;;;;;5007659;28;20056;-43
2022/07/16 08:47:44;;;;;;;5.32;3.45;;;;;;;;;;5007138;28;20077;-41
2022/07/16 08:50:13;;;;;;;3.42;3.13;;;;;;;;;;5007605;28;20121;-41
2022/07/16 08:52:41;;;;;;;11.07;3.20;;;;;;;;;;5007243;28;20070;-42
2022/07/16 08:55:08;;;;;;;6.57;2.65;;;;;;;;;;5007193;28;20050;-43
2022/07/16 08:57:38;;;;;;;5.63;3.10;;;;;;;;;;5006874;28;20123;-44
2022/07/16 09:00:07;;;;;;;4.70;3.13;;;;;;;;;;5007452;28;20051;-42
2022/07/16 09:02:35;;;;;;;3.90;3.08;;;;;;;;;;5005969;28;20485;-42
2022/07/16 09:05:00;;;;;;;7.30;3.05;;;;;;;;;;5004746;28;20050;-43
2022/07/16 09:07:26;;;;;;;6.78;3.22;;;;;;;;;;5006543;28;20053;-43
2022/07/16 09:09:52;;;;;;;11.82;2.90;;;;;;;;;;5006756;28;20109;-41
2022/07/16 09:12:58;;;;;;;7.80;3.25;;;;;;;;;;5004854;28;20111;-42
2022/07/16 09:15:31;;;;;;;8.35;3.38;;;;;;;;;;4971595;28;20408;-42
2022/07/16 09:18:17;;;;;;;5.53;3.22;;;;;;;;;;4976280;28;20077;-42
2022/07/16 09:20:56;;;;;;;5.60;3.10;;;;;;;;;;4968683;28;20074;-42
2022/07/16 09:23:23;;;;;;;11.65;3.50;;;;;;;;;;4968949;28;20061;-42
2022/07/16 09:25:53;;;;;;;7.38;3.42;;;;;;;;;;4975692;28;20512;-41
2022/07/16 09:28:19;;;;;;;5.78;3.72;;;;;;;;;;4978491;28;20108;-43
2022/07/16 09:30:45;;;;;;;4.68;3.00;;;;;;;;;;4974118;28;20058;-43
2022/07/16 09:33:17;;;;;;;4.95;3.72;;;;;;;;;;4974199;28;23217;-42
2022/07/16 09:35:43;;;;;;;3.50;3.25;;;;;;;;;;4973448;28;20067;-43
2022/07/16 09:38:10;;;;;;;5.10;3.30;;;;;;;;;;4971617;28;20118;-45
2022/07/16 09:40:45;;;;;;;6.13;3.80;;;;;;;;;;4974701;28;20047;-42
2022/07/16 09:43:11;;;;;;;9.80;3.60;;;;;;;;;;4968390;28;20122;-43
2022/07/16 09:45:39;;;;;;;6.00;3.70;;;;;;;;;;4975682;28;20129;-42
2022/07/16 09:48:25;;;;;;;6.80;3.35;;;;;;;;;;5007818;28;20112;-42
2022/07/16 09:50:52;;;;;;;4.80;3.53;;;;;;;;;;5003226;28;20034;-42
2022/07/16 09:53:21;;;;;;;5.25;3.40;;;;;;;;;;5004217;28;20398;-42
2022/07/16 09:56:18;;;;;;;4.10;3.40;;;;;;;;;;5001219;28;20042;-44
2022/07/16 09:58:52;;;;;;;8.32;3.55;;;;;;;;;;5006827;28;20046;-42
2022/07/16 10:01:18;;;;;;;11.70;4.35;;;;;;;;;;5003435;28;20403;-43
2022/07/16 10:03:46;;;;;;;6.38;4.00;;;;;;;;;;5007797;28;20033;-43
2022/07/16 10:06:12;;;;;;;8.38;3.88;;;;;;;;;;5003252;28;20018;-43
2022/07/16 10:08:39;;;;;;;6.28;3.72;;;;;;;;;;5003256;28;20026;-43
2022/07/16 10:11:05;;;;;;;9.45;4.35;;;;;;;;;;5010333;28;20235;-45
2022/07/16 10:13:33;;;;;;;8.07;3.90;;;;;;;;;;5003081;28;20072;-43
2022/07/16 10:15:59;;;;;;;6.53;3.83;;;;;;;;;;5003880;28;20030;-44
2022/07/16 10:18:45;;;;;;;7.70;4.38;;;;;;;;;;4999505;28;20034;-43
2022/07/16 10:21:10;;;;;;;11.23;4.57;;;;;;;;;;5006087;28;20169;-42
2022/07/16 10:23:38;;;;;;;6.13;4.43;;;;;;;;;;5000265;28;20494;-41
2022/07/16 10:26:18;;;;;;;7.32;4.38;;;;;;;;;;5005510;28;20049;-44
2022/07/16 10:28:46;;;;;;;6.72;6.07;;;;;;;;;;5000344;28;20036;-42
2022/07/16 10:31:30;;;;;;;6.93;4.93;;;;;;;;;;5007186;28;21409;-42
2022/07/16 10:34:31;;;;;;;6.45;5.32;;;;;;;;;;5004239;28;20022;-42
2022/07/16 10:36:58;;;;;;;5.30;4.20;;;;;;;;;;5004508;28;20050;-43
2022/07/16 10:39:25;;;;;;;4.75;4.22;;;;;;;;;;5003491;28;20034;-42
2022/07/16 10:42:00;;;;;;;11.60;7.43;;;;;;;;;;5000108;28;20092;-48
2022/07/16 10:44:42;;;;;;;5.95;4.22;;;;;;;;;;5004662;28;20025;-42
2022/07/16 10:47:09;;;;;;;10.75;5.10;;;;;;;;;;4995636;28;20038;-42
2022/07/16 10:49:35;;;;;;;8.38;4.25;;;;;;;;;;4999768;28;20049;-41
2022/07/16 10:52:05;;;;;;;4.45;4.05;;;;;;;;;;5003875;28;20438;-41
2022/07/16 10:54:58;;;;;;;3.72;3.42;;;;;;;;;;4997376;28;20034;-43
2022/07/16 10:57:36;;;;;;;4.07;3.75;;;;;;;;;;4996912;28;20525;-42
2022/07/16 11:00:06;;;;;;;10.32;4.03;;;;;;;;;;4999687;28;20434;-44
2022/07/16 11:02:41;;;;;;;11.13;3.72;;;;;;;;;;4997746;28;20052;-43
2022/07/16 11:05:08;;;;;;;9.45;3.45;;;;;;;;;;5002747;28;20033;-42
2022/07/16 11:07:35;;;;;;;6.00;3.65;;;;;;;;;;4999433;28;20473;-43
2022/07/16 11:10:02;;;;;;;5.70;3.78;;;;;;;;;;4997874;28;20038;-42
2022/07/16 11:12:32;;;;;;;5.32;3.53;;;;;;;;;;4998289;28;20434;-41
2022/07/16 11:14:59;;;;;;;7.28;4.05;;;;;;;;;;5003265;28;20029;-44
2022/07/16 11:17:29;;;;;;;6.20;3.92;;;;;;;;;;4999959;28;20088;-43
2022/07/16 11:20:00;;;;;;;5.13;3.72;;;;;;;;;;5005126;28;20054;-42
2022/07/16 11:22:29;;;;;;;5.28;3.47;;;;;;;;;;5005457;28;20095;-42
2022/07/16 11:24:58;;;;;;;11.18;3.67;;;;;;;;;;5006047;28;20494;-45
2022/07/16 11:27:27;;;;;;;7.68;4.07;;;;;;;;;;5003306;28;20037;-42
2022/07/16 11:30:00;;;;;;;3.55;3.20;;;;;;;;;;5005004;28;20034;-45
2022/07/16 11:32:27;;;;;;;5.85;3.72;;;;;;;;;;5001940;28;20048;-43
2022/07/16 11:34:53;;;;;;;4.03;3.17;;;;;;;;;;5003142;28;20540;-42
2022/07/16 11:37:19;;;;;;;6.40;3.75;;;;;;;;;;5006338;28;20501;-46
2022/07/16 11:39:45;;;;;;;5.75;3.90;;;;;;;;;;5006015;28;20025;-42
2022/07/16 11:42:11;;;;;;;9.10;3.38;;;;;;;;;;5003319;28;20578;-42
2022/07/16 11:44:39;;;;;;;5.25;3.40;;;;;;;;;;5006326;28;20038;-42
2022/07/16 11:47:10;;;;;;;4.20;3.80;;;;;;;;;;4999883;28;20033;-42
2022/07/16 11:49:38;;;;;;;8.95;3.97;;;;;;;;;;5004987;28;20035;-42
2022/07/16 11:52:06;;;;;;;4.63;3.20;;;;;;;;;;5007453;28;20669;-42
2022/07/16 11:54:37;;;;;;;7.85;3.38;;;;;;;;;;5005653;28;20405;-42
2022/07/16 11:57:03;;;;;;;8.02;3.22;;;;;;;;;;5008643;28;20030;-43
2022/07/16 11:59:32;;;;;;;8.02;3.53;;;;;;;;;;5007364;28;20030;-42
2022/07/16 12:02:04;;;;;;;3.92;3.40;;;;;;;;;;5005940;28;20032;-43
2022/07/16 12:04:34;;;;;;;6.15;3.53;;;;;;;;;;5003622;28;20850;-42
2022/07/16 12:07:00;;;;;;;4.43;3.65;;;;;;;;;;5009209;28;20517;-42
2022/07/16 12:09:34;;;;;;;7.82;2.95;;;;;;;;;;5006383;28;20363;-42
2022/07/16 12:12:04;;;;;;;5.43;3.58;;;;;;;;;;5007235;28;20470;-45
2022/07/16 12:14:45;;;;;;;5.15;3.00;;;;;;;;;;5007066;28;20386;-42
2022/07/16 12:17:31;;;;;;;3.83;2.72;;;;;;;;;;5007437;28;20081;-42
2022/07/16 12:20:07;;;;;;;6.53;3.17;;;;;;;;;;5006673;28;20038;-42
2022/07/16 12:23:02;;;;;;;6.28;3.00;;;;;;;;;;5006580;28;20121;-43
2022/07/16 12:25:28;;;;;;;3.67;2.63;;;;;;;;;;5009229;28;20026;-43
2022/07/16 12:27:59;;;;;;;2.83;2.63;;;;;;;;;;5008962;28;20034;-42
2022/07/16 12:30:37;;;;;;;5.50;3.17;;;;;;;;;;5010110;28;20026;-42
2022/07/16 12:33:05;;;;;;;6.97;2.80;;;;;;;;;;5009134;28;20030;-43
2022/07/16 12:36:06;;;;;;;9.52;3.33;;;;;;;;;;5010479;28;20459;-42
2022/07/16 12:41:36;;;;;;;5.47;3.25;;;;;;;;;;5005118;28;20037;-43
2022/07/16 12:44:07;;;;;;;4.85;2.80;;;;;;;;;;5002289;28;20038;-44
2022/07/16 12:46:34;;;;;;;;;;;;;;;;;;5005165;28;20073;-42
2022/07/16 12:49:04;;;;;;;6.13;3.17;;;;;;;;;;5008953;28;19918;-43
2022/07/16 12:51:33;;;;;;;4.25;2.95;;;;;;;;;;5005453;28;20064;-42
2022/07/16 12:54:00;;;;;;;6.80;3.03;;;;;;;;;;5005959;28;20079;-45
2022/07/16 12:59:14;;;;;;;4.90;3.00;;;;;;;;;;5011373;28;20038;-44
2022/07/16 13:01:40;;;;;;;5.85;2.63;;;;;;;;;;5006392;28;21383;-43
2022/07/16 13:04:07;;;;;;;3.78;2.97;;;;;;;;;;5002768;28;20077;-47
2022/07/16 13:06:34;;;;;;;4.18;2.83;;;;;;;;;;5008274;28;20440;-42
2022/07/16 13:09:01;;;;;;;3.28;2.60;;;;;;;;;;5009274;28;20034;-43
2022/07/16 13:11:27;;;;;;;3.63;2.70;;;;;;;;;;5004368;28;20032;-43
2022/07/16 13:13:53;;;;;;;4.25;2.83;;;;;;;;;;5006555;28;20121;-47
2022/07/16 13:16:20;;;;;;;2.63;2.42;;;;;;;;;;5001022;28;20037;-44
2022/07/16 13:18:48;;;;;;;3.95;2.60;;;;;;;;;;4999062;28;20049;-43
2022/07/16 13:21:15;;;;;;;4.38;2.70;;;;;;;;;;4997464;28;20075;-45
2022/07/16 13:23:41;;;;;;;3.38;2.63;;;;;;;;;;5008628;28;20032;-48
2022/07/16 13:26:09;;;;;;;7.70;2.80;;;;;;;;;;5006358;28;20030;-42
2022/07/16 13:28:35;;;;;;;5.32;2.72;;;;;;;;;;5003250;28;20454;-45
2022/07/16 13:31:01;;;;;;;5.43;2.97;;;;;;;;;;5007016;28;20073;-46
2022/07/16 13:33:27;;;;;;;3.65;3.13;;;;;;;;;;5010289;28;24007;-46
2022/07/16 13:35:54;;;;;;;6.32;3.00;;;;;;;;;;5005853;28;20029;-43
2022/07/16 13:38:20;;;;;;;11.32;3.38;;;;;;;;;;5004341;28;20033;-44
2022/07/16 13:40:46;;;;;;;5.88;3.47;;;;;;;;;;5003736;28;20029;-48
2022/07/16 13:43:12;;;;;;;3.65;3.05;;;;;;;;;;5005559;28;20485;-42
2022/07/16 13:45:39;;;;;;;4.57;3.28;;;;;;;;;;5003854;28;20030;-48
2022/07/16 13:48:05;;;;;;;4.53;3.28;;;;;;;;;;5006802;28;20026;-48
2022/07/16 13:50:30;;;;;;;3.92;3.20;;;;;;;;;;5002151;28;20029;-43
2022/07/16 13:52:57;;;;;;;5.88;3.42;;;;;;;;;;5004224;28;20049;-46
2022/07/16 13:55:23;;;;;;;3.92;3.38;;;;;;;;;;5007157;28;20121;-45
2022/07/16 14:00:33;;;;;;;4.95;3.08;;;;;;;;;;5009722;28;20037;-42
2022/07/16 14:02:59;;;;;;;5.90;3.10;;;;;;;;;;5005368;28;20044;-43
2022/07/16 14:05:25;;;;;;;5.60;3.00;;;;;;;;;;5007273;28;20482;-50
2022/07/16 14:07:51;;;;;;;5.00;3.25;;;;;;;;;;5001513;28;20109;-46
2022/07/16 14:10:17;;;;;;;3.50;3.20;;;;;;;;;;5002949;28;20033;-42
2022/07/16 14:12:44;;;;;;;5.57;3.58;;;;;;;;;;5007416;28;20475;-45
2022/07/16 14:15:11;;;;;;;10.52;3.25;;;;;;;;;;5005360;28;20438;-44
2022/07/16 14:17:42;;;;;;;8.88;3.30;;;;;;;;;;5005995;28;20038;-44
2022/07/16 14:20:11;;;;;;;7.25;3.35;;;;;;;;;;5004573;28;20114;-43
2022/07/16 14:22:37;;;;;;;4.00;3.15;;;;;;;;;;5006935;28;20091;-48
2022/07/16 14:25:03;;;;;;;7.22;3.40;;;;;;;;;;5002734;28;20467;-46
2022/07/16 14:27:29;;;;;;;3.97;3.28;;;;;;;;;;5005785;28;20153;-44
2022/07/16 14:29:55;;;;;;;5.53;3.28;;;;;;;;;;5004922;28;20148;-43
2022/07/16 14:32:21;;;;;;;4.05;3.45;;;;;;;;;;5002380;28;20395;-44
2022/07/16 14:34:48;;;;;;;8.63;3.50;;;;;;;;;;5006729;28;20029;-48
2022/07/16 14:37:14;;;;;;;6.00;3.08;;;;;;;;;;5005905;28;20033;-44
2022/07/16 14:39:40;;;;;;;5.82;3.55;;;;;;;;;;5004372;28;20030;-44
2022/07/16 14:42:05;;;;;;;4.18;3.40;;;;;;;;;;4999476;28;22618;-45
2022/07/16 14:44:33;;;;;;;9.23;3.42;;;;;;;;;;5003023;28;20620;-43
2022/07/16 14:46:58;;;;;;;5.80;3.20;;;;;;;;;;5005735;28;20037;-42
2022/07/16 14:49:24;;;;;;;3.60;3.30;;;;;;;;;;5007974;28;20030;-42
2022/07/16 14:51:50;;;;;;;12.60;3.60;;;;;;;;;;5007605;28;20038;-45
2022/07/16 14:54:15;;;;;;;3.10;2.90;;;;;;;;;;5002393;28;20113;-44
2022/07/16 14:56:41;;;;;;;7.07;3.60;;;;;;;;;;4997976;28;20048;-43
2022/07/16 14:59:07;;;;;;;8.55;3.55;;;;;;;;;;5005158;28;20132;-42
2022/07/16 15:01:33;;;;;;;6.47;3.45;;;;;;;;;;5000843;28;20042;-48
2022/07/16 15:03:59;;;;;;;5.65;3.50;;;;;;;;;;5010450;28;20026;-48
2022/07/16 15:06:25;;;;;;;10.80;3.53;;;;;;;;;;5000353;28;20483;-43
2022/07/16 15:08:51;;;;;;;4.03;3.10;;;;;;;;;;4999629;28;20061;-44